Webcam Flughafen St.Gallen-Altenrhein

Live-Bilder und Zeitraffer LSZR / ACH.

 

Live aus Altenrhein
LIVE
LSZR 271750Z 12004KT 9000 BKN100 05/05 Q1011 NOSIG RMK N
Zeitraffer heute
2020-01-27 00:13:52
LSZR 262250Z AUTO VRB01KT 2600 -DZ BKN003 OVC043 02/01 Q1020 RERASN